sensor_id;sensor_type;location;lat;lon;timestamp;P1;durP1;ratioP1;P2;durP2;ratioP2
20067;SDS011;10194;50.824;7.134;2022-09-20T00:01:21;385.47;;;350.43;;
20067;SDS011;10194;50.824;7.134;2022-09-20T00:03:53;386.03;;;350.83;;
20067;SDS011;10194;50.824;7.134;2022-09-20T00:06:23;386.93;;;351.87;;
20067;SDS011;10194;50.824;7.134;2022-09-20T00:08:52;388.30;;;353.30;;
20067;SDS011;10194;50.824;7.134;2022-09-20T00:11:19;387.30;;;352.47;;
20067;SDS011;10194;50.824;7.134;2022-09-20T00:13:49;387.90;;;352.97;;
20067;SDS011;10194;50.824;7.134;2022-09-20T00:16:27;389.40;;;354.00;;
20067;SDS011;10194;50.824;7.134;2022-09-20T00:18:57;395.20;;;359.63;;
20067;SDS011;10194;50.824;7.134;2022-09-20T00:21:26;393.53;;;357.70;;
20067;SDS011;10194;50.824;7.134;2022-09-20T00:23:54;398.63;;;362.83;;
20067;SDS011;10194;50.824;7.134;2022-09-20T00:26:21;395.30;;;359.87;;
20067;SDS011;10194;50.824;7.134;2022-09-20T00:28:47;399.73;;;364.13;;
20067;SDS011;10194;50.824;7.134;2022-09-20T00:31:13;399.13;;;363.70;;
20067;SDS011;10194;50.824;7.134;2022-09-20T00:33:39;397.77;;;362.03;;
20067;SDS011;10194;50.824;7.134;2022-09-20T00:36:24;401.07;;;365.30;;
20067;SDS011;10194;50.824;7.134;2022-09-20T00:38:58;404.70;;;369.07;;
20067;SDS011;10194;50.824;7.134;2022-09-20T00:41:26;396.90;;;361.70;;
20067;SDS011;10194;50.824;7.134;2022-09-20T00:43:53;399.43;;;363.97;;
20067;SDS011;10194;50.824;7.134;2022-09-20T00:46:39;401.43;;;365.83;;
20067;SDS011;10194;50.824;7.134;2022-09-20T00:49:12;404.60;;;369.00;;
20067;SDS011;10194;50.824;7.134;2022-09-20T00:51:44;402.27;;;366.57;;
20067;SDS011;10194;50.824;7.134;2022-09-20T00:54:21;400.90;;;365.53;;
20067;SDS011;10194;50.824;7.134;2022-09-20T00:56:49;395.90;;;360.83;;
20067;SDS011;10194;50.824;7.134;2022-09-20T00:59:29;401.43;;;365.50;;
20067;SDS011;10194;50.824;7.134;2022-09-20T01:02:22;399.37;;;364.03;;
20067;SDS011;10194;50.824;7.134;2022-09-20T01:04:52;400.67;;;365.30;;
20067;SDS011;10194;50.824;7.134;2022-09-20T01:07:21;401.47;;;366.17;;
20067;SDS011;10194;50.824;7.134;2022-09-20T01:09:48;401.23;;;365.60;;
20067;SDS011;10194;50.824;7.134;2022-09-20T01:12:17;398.10;;;362.20;;
20067;SDS011;10194;50.824;7.134;2022-09-20T01:14:49;399.43;;;364.00;;
20067;SDS011;10194;50.824;7.134;2022-09-20T01:17:16;400.87;;;365.17;;
20067;SDS011;10194;50.824;7.134;2022-09-20T01:25:17;396.93;;;361.60;;
20067;SDS011;10194;50.824;7.134;2022-09-20T01:28:23;398.33;;;362.70;;
20067;SDS011;10194;50.824;7.134;2022-09-20T01:30:58;395.83;;;361.10;;
20067;SDS011;10194;50.824;7.134;2022-09-20T01:36:22;399.03;;;363.47;;
20067;SDS011;10194;50.824;7.134;2022-09-20T01:52:54;399.23;;;363.33;;
20067;SDS011;10194;50.824;7.134;2022-09-20T02:07:15;396.80;;;361.43;;
20067;SDS011;10194;50.824;7.134;2022-09-20T02:13:09;394.40;;;359.20;;
20067;SDS011;10194;50.824;7.134;2022-09-20T02:25:17;391.43;;;356.23;;
20067;SDS011;10194;50.824;7.134;2022-09-20T02:30:50;393.93;;;358.67;;
20067;SDS011;10194;50.824;7.134;2022-09-20T02:36:39;391.97;;;356.83;;
20067;SDS011;10194;50.824;7.134;2022-09-20T02:39:22;391.13;;;356.20;;
20067;SDS011;10194;50.824;7.134;2022-09-20T02:42:08;391.97;;;356.83;;
20067;SDS011;10194;50.824;7.134;2022-09-20T02:45:01;393.20;;;357.97;;
20067;SDS011;10194;50.824;7.134;2022-09-20T02:47:43;388.37;;;353.60;;
20067;SDS011;10194;50.824;7.134;2022-09-20T02:53:36;390.17;;;354.97;;
20067;SDS011;10194;50.824;7.134;2022-09-20T02:59:05;390.00;;;354.83;;
20067;SDS011;10194;50.824;7.134;2022-09-20T03:01:59;388.47;;;353.40;;
20067;SDS011;10194;50.824;7.134;2022-09-20T03:05:02;389.00;;;354.03;;
20067;SDS011;10194;50.824;7.134;2022-09-20T03:10:17;388.87;;;353.47;;
20067;SDS011;10194;50.824;7.134;2022-09-20T03:18:32;388.00;;;353.20;;
20067;SDS011;10194;50.824;7.134;2022-09-20T03:21:03;386.20;;;351.10;;
20067;SDS011;10194;50.824;7.134;2022-09-20T03:26:55;389.53;;;354.70;;
20067;SDS011;10194;50.824;7.134;2022-09-20T03:29:41;389.73;;;354.73;;
20067;SDS011;10194;50.824;7.134;2022-09-20T03:44:09;387.77;;;352.87;;
20067;SDS011;10194;50.824;7.134;2022-09-20T04:05:23;394.53;;;359.53;;
20067;SDS011;10194;50.824;7.134;2022-09-20T04:08:19;393.63;;;358.00;;
20067;SDS011;10194;50.824;7.134;2022-09-20T04:13:59;396.53;;;361.13;;
20067;SDS011;10194;50.824;7.134;2022-09-20T04:19:54;396.20;;;360.47;;
20067;SDS011;10194;50.824;7.134;2022-09-20T04:22:30;401.30;;;365.80;;
20067;SDS011;10194;50.824;7.134;2022-09-20T04:27:49;395.70;;;360.70;;
20067;SDS011;10194;50.824;7.134;2022-09-20T04:30:29;392.93;;;357.97;;
20067;SDS011;10194;50.824;7.134;2022-09-20T04:33:02;393.63;;;358.17;;
20067;SDS011;10194;50.824;7.134;2022-09-20T04:39:02;391.43;;;356.33;;
20067;SDS011;10194;50.824;7.134;2022-09-20T05:15:37;399.83;;;364.43;;
20067;SDS011;10194;50.824;7.134;2022-09-20T05:24:15;401.07;;;364.97;;
20067;SDS011;10194;50.824;7.134;2022-09-20T05:27:34;399.97;;;363.60;;
20067;SDS011;10194;50.824;7.134;2022-09-20T05:39:45;398.00;;;361.97;;
20067;SDS011;10194;50.824;7.134;2022-09-20T05:42:24;398.27;;;362.33;;
20067;SDS011;10194;50.824;7.134;2022-09-20T05:45:32;396.77;;;361.43;;
20067;SDS011;10194;50.824;7.134;2022-09-20T05:51:38;394.33;;;359.00;;
20067;SDS011;10194;50.824;7.134;2022-09-20T05:54:40;395.70;;;360.27;;
20067;SDS011;10194;50.824;7.134;2022-09-20T06:00:20;391.80;;;356.40;;
20067;SDS011;10194;50.824;7.134;2022-09-20T06:12:10;394.03;;;358.93;;
20067;SDS011;10194;50.824;7.134;2022-09-20T06:18:13;395.60;;;360.30;;
20067;SDS011;10194;50.824;7.134;2022-09-20T06:21:50;396.93;;;361.10;;
20067;SDS011;10194;50.824;7.134;2022-09-20T06:24:00;395.10;;;359.57;;
20067;SDS011;10194;50.824;7.134;2022-09-20T06:26:28;394.30;;;358.37;;
20067;SDS011;10194;50.824;7.134;2022-09-20T06:29:04;397.83;;;361.80;;
20067;SDS011;10194;50.824;7.134;2022-09-20T06:31:35;396.07;;;359.77;;
20067;SDS011;10194;50.824;7.134;2022-09-20T06:34:02;395.63;;;359.70;;
20067;SDS011;10194;50.824;7.134;2022-09-20T06:36:35;385.63;;;349.80;;
20067;SDS011;10194;50.824;7.134;2022-09-20T06:39:32;392.57;;;356.67;;
20067;SDS011;10194;50.824;7.134;2022-09-20T06:42:40;397.07;;;360.47;;
20067;SDS011;10194;50.824;7.134;2022-09-20T06:45:08;390.30;;;354.23;;
20067;SDS011;10194;50.824;7.134;2022-09-20T06:47:34;380.07;;;344.60;;
20067;SDS011;10194;50.824;7.134;2022-09-20T06:50:01;382.53;;;346.80;;
20067;SDS011;10194;50.824;7.134;2022-09-20T06:52:27;379.10;;;343.03;;
20067;SDS011;10194;50.824;7.134;2022-09-20T06:54:53;380.20;;;344.37;;
20067;SDS011;10194;50.824;7.134;2022-09-20T06:57:28;386.27;;;350.20;;
20067;SDS011;10194;50.824;7.134;2022-09-20T07:00:00;388.83;;;352.23;;
20067;SDS011;10194;50.824;7.134;2022-09-20T07:02:26;386.17;;;350.20;;
20067;SDS011;10194;50.824;7.134;2022-09-20T07:04:52;394.80;;;358.17;;
20067;SDS011;10194;50.824;7.134;2022-09-20T07:07:19;399.73;;;363.00;;
20067;SDS011;10194;50.824;7.134;2022-09-20T07:09:45;402.73;;;366.40;;
20067;SDS011;10194;50.824;7.134;2022-09-20T07:12:11;398.93;;;362.53;;
20067;SDS011;10194;50.824;7.134;2022-09-20T07:14:37;391.00;;;354.90;;
20067;SDS011;10194;50.824;7.134;2022-09-20T07:17:03;388.53;;;352.50;;
20067;SDS011;10194;50.824;7.134;2022-09-20T07:19:30;379.63;;;343.23;;
20067;SDS011;10194;50.824;7.134;2022-09-20T07:21:55;372.90;;;337.33;;
20067;SDS011;10194;50.824;7.134;2022-09-20T07:24:21;370.23;;;333.50;;
20067;SDS011;10194;50.824;7.134;2022-09-20T07:26:54;375.23;;;338.87;;
20067;SDS011;10194;50.824;7.134;2022-09-20T07:29:25;372.67;;;336.50;;
20067;SDS011;10194;50.824;7.134;2022-09-20T07:31:52;363.97;;;328.47;;
20067;SDS011;10194;50.824;7.134;2022-09-20T07:34:18;366.43;;;330.73;;
20067;SDS011;10194;50.824;7.134;2022-09-20T07:36:44;364.33;;;328.80;;
20067;SDS011;10194;50.824;7.134;2022-09-20T07:39:11;361.33;;;326.27;;
20067;SDS011;10194;50.824;7.134;2022-09-20T07:41:37;355.37;;;320.83;;
20067;SDS011;10194;50.824;7.134;2022-09-20T07:44:03;345.07;;;309.97;;
20067;SDS011;10194;50.824;7.134;2022-09-20T07:47:07;348.47;;;313.87;;
20067;SDS011;10194;50.824;7.134;2022-09-20T07:49:34;354.63;;;319.73;;
20067;SDS011;10194;50.824;7.134;2022-09-20T07:52:00;357.07;;;322.37;;
20067;SDS011;10194;50.824;7.134;2022-09-20T07:54:27;346.87;;;312.23;;
20067;SDS011;10194;50.824;7.134;2022-09-20T07:56:53;341.57;;;307.80;;
20067;SDS011;10194;50.824;7.134;2022-09-20T07:59:19;350.37;;;316.00;;
20067;SDS011;10194;50.824;7.134;2022-09-20T08:01:45;351.17;;;316.67;;
20067;SDS011;10194;50.824;7.134;2022-09-20T08:04:10;336.63;;;302.93;;
20067;SDS011;10194;50.824;7.134;2022-09-20T08:06:37;341.60;;;307.60;;
20067;SDS011;10194;50.824;7.134;2022-09-20T08:09:05;337.30;;;303.37;;
20067;SDS011;10194;50.824;7.134;2022-09-20T08:11:32;328.50;;;294.63;;
20067;SDS011;10194;50.824;7.134;2022-09-20T08:13:59;327.80;;;294.43;;
20067;SDS011;10194;50.824;7.134;2022-09-20T08:16:27;333.53;;;299.33;;
20067;SDS011;10194;50.824;7.134;2022-09-20T08:18:55;337.13;;;302.77;;
20067;SDS011;10194;50.824;7.134;2022-09-20T08:21:35;333.40;;;299.50;;
20067;SDS011;10194;50.824;7.134;2022-09-20T08:24:03;330.00;;;296.73;;
20067;SDS011;10194;50.824;7.134;2022-09-20T08:26:29;331.00;;;297.63;;
20067;SDS011;10194;50.824;7.134;2022-09-20T08:28:57;333.00;;;299.60;;
20067;SDS011;10194;50.824;7.134;2022-09-20T08:31:24;333.27;;;300.03;;
20067;SDS011;10194;50.824;7.134;2022-09-20T08:33:59;325.43;;;292.33;;
20067;SDS011;10194;50.824;7.134;2022-09-20T08:36:29;324.37;;;291.37;;
20067;SDS011;10194;50.824;7.134;2022-09-20T08:38:56;312.90;;;279.93;;
20067;SDS011;10194;50.824;7.134;2022-09-20T08:41:25;312.20;;;279.60;;
20067;SDS011;10194;50.824;7.134;2022-09-20T08:46:50;316.27;;;283.33;;
20067;SDS011;10194;50.824;7.134;2022-09-20T08:49:28;313.50;;;280.80;;
20067;SDS011;10194;50.824;7.134;2022-09-20T08:51:54;316.23;;;283.30;;
20067;SDS011;10194;50.824;7.134;2022-09-20T08:54:23;306.83;;;274.33;;
20067;SDS011;10194;50.824;7.134;2022-09-20T08:56:50;294.23;;;262.10;;
20067;SDS011;10194;50.824;7.134;2022-09-20T08:59:17;296.33;;;261.23;;
20067;SDS011;10194;50.824;7.134;2022-09-20T09:01:46;294.07;;;262.70;;
20067;SDS011;10194;50.824;7.134;2022-09-20T09:04:15;308.07;;;275.43;;
20067;SDS011;10194;50.824;7.134;2022-09-20T09:06:45;307.30;;;273.97;;
20067;SDS011;10194;50.824;7.134;2022-09-20T09:09:21;291.80;;;259.20;;
20067;SDS011;10194;50.824;7.134;2022-09-20T09:11:51;304.60;;;268.47;;
20067;SDS011;10194;50.824;7.134;2022-09-20T09:14:26;302.00;;;269.23;;
20067;SDS011;10194;50.824;7.134;2022-09-20T09:17:24;297.73;;;265.67;;
20067;SDS011;10194;50.824;7.134;2022-09-20T09:19:59;308.93;;;275.73;;
20067;SDS011;10194;50.824;7.134;2022-09-20T09:22:45;311.30;;;277.47;;
20067;SDS011;10194;50.824;7.134;2022-09-20T09:27:51;317.17;;;283.87;;
20067;SDS011;10194;50.824;7.134;2022-09-20T09:30:20;315.37;;;282.27;;
20067;SDS011;10194;50.824;7.134;2022-09-20T09:32:51;315.37;;;281.87;;
20067;SDS011;10194;50.824;7.134;2022-09-20T09:35:42;313.07;;;279.97;;
20067;SDS011;10194;50.824;7.134;2022-09-20T09:38:18;299.90;;;267.77;;
20067;SDS011;10194;50.824;7.134;2022-09-20T09:40:52;298.90;;;266.10;;
20067;SDS011;10194;50.824;7.134;2022-09-20T09:43:27;291.03;;;258.93;;
20067;SDS011;10194;50.824;7.134;2022-09-20T09:46:19;291.30;;;257.53;;
20067;SDS011;10194;50.824;7.134;2022-09-20T09:49:33;288.53;;;256.57;;
20067;SDS011;10194;50.824;7.134;2022-09-20T09:54:49;292.47;;;260.53;;
20067;SDS011;10194;50.824;7.134;2022-09-20T10:00:19;295.37;;;263.27;;
20067;SDS011;10194;50.824;7.134;2022-09-20T10:06:19;306.33;;;273.47;;
20067;SDS011;10194;50.824;7.134;2022-09-20T10:09:16;307.03;;;273.93;;
20067;SDS011;10194;50.824;7.134;2022-09-20T10:12:00;300.53;;;267.77;;
20067;SDS011;10194;50.824;7.134;2022-09-20T10:15:10;313.83;;;281.10;;
20067;SDS011;10194;50.824;7.134;2022-09-20T10:21:00;303.67;;;271.47;;
20067;SDS011;10194;50.824;7.134;2022-09-20T10:38:33;321.63;;;288.67;;
20067;SDS011;10194;50.824;7.134;2022-09-20T10:49:42;315.23;;;282.50;;
20067;SDS011;10194;50.824;7.134;2022-09-20T10:52:36;316.27;;;283.10;;
20067;SDS011;10194;50.824;7.134;2022-09-20T11:01:07;323.80;;;289.83;;
20067;SDS011;10194;50.824;7.134;2022-09-20T11:09:37;319.67;;;287.07;;
20067;SDS011;10194;50.824;7.134;2022-09-20T11:12:42;309.33;;;276.80;;
20067;SDS011;10194;50.824;7.134;2022-09-20T11:15:50;315.30;;;282.73;;
20067;SDS011;10194;50.824;7.134;2022-09-20T11:21:07;308.70;;;276.07;;
20067;SDS011;10194;50.824;7.134;2022-09-20T11:23:56;305.03;;;272.23;;
20067;SDS011;10194;50.824;7.134;2022-09-20T11:26:50;291.50;;;259.37;;
20067;SDS011;10194;50.824;7.134;2022-09-20T11:34:51;290.60;;;258.50;;
20067;SDS011;10194;50.824;7.134;2022-09-20T11:37:21;298.03;;;265.30;;
20067;SDS011;10194;50.824;7.134;2022-09-20T11:40:06;290.60;;;257.40;;
20067;SDS011;10194;50.824;7.134;2022-09-20T11:42:54;291.73;;;256.13;;
20067;SDS011;10194;50.824;7.134;2022-09-20T11:45:23;293.13;;;261.43;;
20067;SDS011;10194;50.824;7.134;2022-09-20T11:47:52;294.40;;;262.33;;
20067;SDS011;10194;50.824;7.134;2022-09-20T11:53:31;290.77;;;256.90;;
20067;SDS011;10194;50.824;7.134;2022-09-20T11:56:33;302.50;;;270.03;;
20067;SDS011;10194;50.824;7.134;2022-09-20T11:59:00;302.53;;;269.67;;
20067;SDS011;10194;50.824;7.134;2022-09-20T12:01:30;291.80;;;257.03;;
20067;SDS011;10194;50.824;7.134;2022-09-20T12:04:18;287.77;;;249.00;;
20067;SDS011;10194;50.824;7.134;2022-09-20T12:06:57;288.50;;;255.27;;
20067;SDS011;10194;50.824;7.134;2022-09-20T12:09:53;297.50;;;265.13;;
20067;SDS011;10194;50.824;7.134;2022-09-20T12:15:03;288.00;;;254.67;;
20067;SDS011;10194;50.824;7.134;2022-09-20T12:26:13;304.10;;;271.30;;
20067;SDS011;10194;50.824;7.134;2022-09-20T12:32:31;312.73;;;279.87;;
20067;SDS011;10194;50.824;7.134;2022-09-20T12:41:03;313.27;;;280.77;;
20067;SDS011;10194;50.824;7.134;2022-09-20T12:43:38;313.67;;;280.43;;
20067;SDS011;10194;50.824;7.134;2022-09-20T12:46:20;301.30;;;269.20;;
20067;SDS011;10194;50.824;7.134;2022-09-20T12:52:04;316.67;;;283.63;;
20067;SDS011;10194;50.824;7.134;2022-09-20T12:58:47;308.40;;;276.07;;
20067;SDS011;10194;50.824;7.134;2022-09-20T13:03:46;297.30;;;265.67;;
20067;SDS011;10194;50.824;7.134;2022-09-20T13:11:42;295.73;;;264.07;;
20067;SDS011;10194;50.824;7.134;2022-09-20T13:14:12;298.77;;;266.77;;
20067;SDS011;10194;50.824;7.134;2022-09-20T13:19:43;308.23;;;275.53;;
20067;SDS011;10194;50.824;7.134;2022-09-20T13:25:16;300.93;;;268.93;;
20067;SDS011;10194;50.824;7.134;2022-09-20T13:30:32;291.87;;;259.90;;
20067;SDS011;10194;50.824;7.134;2022-09-20T13:35:53;291.23;;;259.33;;
20067;SDS011;10194;50.824;7.134;2022-09-20T13:38:22;281.90;;;246.73;;
20067;SDS011;10194;50.824;7.134;2022-09-20T13:41:02;279.87;;;239.70;;
20067;SDS011;10194;50.824;7.134;2022-09-20T13:43:42;278.73;;;234.37;;
20067;SDS011;10194;50.824;7.134;2022-09-20T13:46:11;278.27;;;233.37;;
20067;SDS011;10194;50.824;7.134;2022-09-20T13:48:41;273.73;;;221.10;;
20067;SDS011;10194;50.824;7.134;2022-09-20T13:51:17;282.63;;;230.00;;
20067;SDS011;10194;50.824;7.134;2022-09-20T13:53:48;283.93;;;239.20;;
20067;SDS011;10194;50.824;7.134;2022-09-20T13:56:16;284.07;;;236.73;;
20067;SDS011;10194;50.824;7.134;2022-09-20T13:58:47;277.13;;;227.13;;
20067;SDS011;10194;50.824;7.134;2022-09-20T14:01:33;278.70;;;222.07;;
20067;SDS011;10194;50.824;7.134;2022-09-20T14:04:07;280.37;;;234.50;;
20067;SDS011;10194;50.824;7.134;2022-09-20T14:06:45;281.93;;;234.87;;
20067;SDS011;10194;50.824;7.134;2022-09-20T14:09:19;287.77;;;248.57;;
20067;SDS011;10194;50.824;7.134;2022-09-20T14:11:54;290.60;;;255.63;;
20067;SDS011;10194;50.824;7.134;2022-09-20T14:14:22;290.73;;;253.90;;
20067;SDS011;10194;50.824;7.134;2022-09-20T14:16:49;289.73;;;255.17;;
20067;SDS011;10194;50.824;7.134;2022-09-20T14:19:19;290.70;;;257.87;;
20067;SDS011;10194;50.824;7.134;2022-09-20T14:21:51;283.90;;;250.43;;
20067;SDS011;10194;50.824;7.134;2022-09-20T14:27:18;281.00;;;238.07;;
20067;SDS011;10194;50.824;7.134;2022-09-20T14:29:52;283.60;;;243.33;;
20067;SDS011;10194;50.824;7.134;2022-09-20T14:34:45;282.20;;;236.67;;
20067;SDS011;10194;50.824;7.134;2022-09-20T14:37:25;285.60;;;252.20;;
20067;SDS011;10194;50.824;7.134;2022-09-20T14:40:31;287.83;;;256.23;;
20067;SDS011;10194;50.824;7.134;2022-09-20T14:45:58;285.83;;;250.83;;
20067;SDS011;10194;50.824;7.134;2022-09-20T14:48:34;288.13;;;243.03;;
20067;SDS011;10194;50.824;7.134;2022-09-20T14:53:33;285.90;;;242.40;;
20067;SDS011;10194;50.824;7.134;2022-09-20T14:58:31;281.97;;;247.70;;
20067;SDS011;10194;50.824;7.134;2022-09-20T15:01:22;279.63;;;236.63;;
20067;SDS011;10194;50.824;7.134;2022-09-20T15:03:50;283.03;;;234.60;;
20067;SDS011;10194;50.824;7.134;2022-09-20T15:06:16;282.83;;;233.97;;
20067;SDS011;10194;50.824;7.134;2022-09-20T15:08:43;279.87;;;236.60;;
20067;SDS011;10194;50.824;7.134;2022-09-20T15:11:13;276.10;;;235.17;;
20067;SDS011;10194;50.824;7.134;2022-09-20T15:13:40;277.40;;;232.87;;
20067;SDS011;10194;50.824;7.134;2022-09-20T15:16:06;277.93;;;232.00;;
20067;SDS011;10194;50.824;7.134;2022-09-20T15:18:39;275.87;;;232.60;;
20067;SDS011;10194;50.824;7.134;2022-09-20T15:21:07;279.73;;;241.17;;
20067;SDS011;10194;50.824;7.134;2022-09-20T15:23:35;284.50;;;249.30;;
20067;SDS011;10194;50.824;7.134;2022-09-20T15:26:03;281.13;;;245.33;;
20067;SDS011;10194;50.824;7.134;2022-09-20T15:28:30;279.67;;;235.47;;
20067;SDS011;10194;50.824;7.134;2022-09-20T15:30:57;278.47;;;233.17;;
20067;SDS011;10194;50.824;7.134;2022-09-20T15:33:23;278.60;;;232.40;;
20067;SDS011;10194;50.824;7.134;2022-09-20T15:35:49;283.97;;;235.93;;
20067;SDS011;10194;50.824;7.134;2022-09-20T15:38:16;277.10;;;228.03;;
20067;SDS011;10194;50.824;7.134;2022-09-20T15:40:46;280.07;;;229.80;;
20067;SDS011;10194;50.824;7.134;2022-09-20T15:43:14;281.70;;;242.53;;
20067;SDS011;10194;50.824;7.134;2022-09-20T15:48:19;287.37;;;249.93;;
20067;SDS011;10194;50.824;7.134;2022-09-20T15:51:04;282.47;;;243.13;;
20067;SDS011;10194;50.824;7.134;2022-09-20T15:56:00;284.27;;;252.47;;
20067;SDS011;10194;50.824;7.134;2022-09-20T15:58:29;281.10;;;248.17;;
20067;SDS011;10194;50.824;7.134;2022-09-20T16:01:02;282.10;;;240.97;;
20067;SDS011;10194;50.824;7.134;2022-09-20T16:03:29;284.47;;;241.77;;
20067;SDS011;10194;50.824;7.134;2022-09-20T16:05:57;282.37;;;238.20;;
20067;SDS011;10194;50.824;7.134;2022-09-20T16:08:32;279.57;;;238.53;;
20067;SDS011;10194;50.824;7.134;2022-09-20T16:11:08;283.77;;;243.97;;
20067;SDS011;10194;50.824;7.134;2022-09-20T16:13:37;280.70;;;244.00;;
20067;SDS011;10194;50.824;7.134;2022-09-20T16:16:04;277.97;;;239.87;;
20067;SDS011;10194;50.824;7.134;2022-09-20T16:18:32;276.80;;;230.80;;
20067;SDS011;10194;50.824;7.134;2022-09-20T16:21:19;281.17;;;243.27;;
20067;SDS011;10194;50.824;7.134;2022-09-20T16:23:49;278.07;;;241.03;;
20067;SDS011;10194;50.824;7.134;2022-09-20T16:26:18;281.37;;;234.30;;
20067;SDS011;10194;50.824;7.134;2022-09-20T16:28:45;274.50;;;227.63;;
20067;SDS011;10194;50.824;7.134;2022-09-20T16:31:35;273.90;;;224.07;;
20067;SDS011;10194;50.824;7.134;2022-09-20T16:34:13;277.73;;;233.97;;
20067;SDS011;10194;50.824;7.134;2022-09-20T16:36:51;271.97;;;220.73;;
20067;SDS011;10194;50.824;7.134;2022-09-20T16:39:20;278.07;;;230.40;;
20067;SDS011;10194;50.824;7.134;2022-09-20T16:41:51;279.30;;;235.83;;
20067;SDS011;10194;50.824;7.134;2022-09-20T16:44:21;275.57;;;230.07;;
20067;SDS011;10194;50.824;7.134;2022-09-20T16:46:48;271.53;;;210.30;;
20067;SDS011;10194;50.824;7.134;2022-09-20T16:49:14;280.60;;;233.63;;
20067;SDS011;10194;50.824;7.134;2022-09-20T16:51:41;276.83;;;229.93;;
20067;SDS011;10194;50.824;7.134;2022-09-20T16:54:11;276.93;;;223.57;;
20067;SDS011;10194;50.824;7.134;2022-09-20T16:56:41;279.40;;;231.37;;
20067;SDS011;10194;50.824;7.134;2022-09-20T16:59:10;278.50;;;233.73;;
20067;SDS011;10194;50.824;7.134;2022-09-20T17:01:38;276.90;;;237.40;;
20067;SDS011;10194;50.824;7.134;2022-09-20T17:04:05;280.30;;;240.50;;
20067;SDS011;10194;50.824;7.134;2022-09-20T17:06:32;280.17;;;245.90;;
20067;SDS011;10194;50.824;7.134;2022-09-20T17:09:00;284.83;;;247.00;;
20067;SDS011;10194;50.824;7.134;2022-09-20T17:11:28;282.73;;;242.47;;
20067;SDS011;10194;50.824;7.134;2022-09-20T17:13:57;280.60;;;234.13;;
20067;SDS011;10194;50.824;7.134;2022-09-20T17:16:25;277.47;;;231.37;;
20067;SDS011;10194;50.824;7.134;2022-09-20T17:19:00;277.43;;;233.37;;
20067;SDS011;10194;50.824;7.134;2022-09-20T17:21:41;285.60;;;254.27;;
20067;SDS011;10194;50.824;7.134;2022-09-20T17:25:22;287.27;;;255.87;;
20067;SDS011;10194;50.824;7.134;2022-09-20T17:27:51;282.57;;;250.43;;
20067;SDS011;10194;50.824;7.134;2022-09-20T17:30:17;299.20;;;252.40;;
20067;SDS011;10194;50.824;7.134;2022-09-20T17:32:42;281.77;;;244.37;;
20067;SDS011;10194;50.824;7.134;2022-09-20T17:35:12;284.00;;;247.57;;
20067;SDS011;10194;50.824;7.134;2022-09-20T17:37:38;280.87;;;242.93;;
20067;SDS011;10194;50.824;7.134;2022-09-20T17:40:05;279.53;;;242.10;;
20067;SDS011;10194;50.824;7.134;2022-09-20T17:42:31;279.97;;;247.00;;
20067;SDS011;10194;50.824;7.134;2022-09-20T17:44:57;278.17;;;245.73;;
20067;SDS011;10194;50.824;7.134;2022-09-20T17:47:25;284.67;;;252.43;;
20067;SDS011;10194;50.824;7.134;2022-09-20T17:49:51;287.47;;;255.87;;
20067;SDS011;10194;50.824;7.134;2022-09-20T17:52:17;289.23;;;257.30;;
20067;SDS011;10194;50.824;7.134;2022-09-20T17:54:43;287.97;;;256.47;;
20067;SDS011;10194;50.824;7.134;2022-09-20T17:57:09;294.50;;;262.73;;
20067;SDS011;10194;50.824;7.134;2022-09-20T17:59:35;292.10;;;260.57;;
20067;SDS011;10194;50.824;7.134;2022-09-20T18:02:00;291.23;;;259.37;;
20067;SDS011;10194;50.824;7.134;2022-09-20T18:04:26;287.77;;;256.30;;
20067;SDS011;10194;50.824;7.134;2022-09-20T18:06:52;288.37;;;256.80;;
20067;SDS011;10194;50.824;7.134;2022-09-20T18:09:20;296.07;;;264.23;;
20067;SDS011;10194;50.824;7.134;2022-09-20T18:11:50;295.63;;;263.60;;
20067;SDS011;10194;50.824;7.134;2022-09-20T18:14:18;295.57;;;263.53;;
20067;SDS011;10194;50.824;7.134;2022-09-20T18:16:49;301.57;;;269.33;;
20067;SDS011;10194;50.824;7.134;2022-09-20T18:19:17;301.10;;;268.90;;
20067;SDS011;10194;50.824;7.134;2022-09-20T18:21:45;294.43;;;262.70;;
20067;SDS011;10194;50.824;7.134;2022-09-20T18:24:11;295.07;;;263.13;;
20067;SDS011;10194;50.824;7.134;2022-09-20T18:26:36;301.57;;;269.60;;
20067;SDS011;10194;50.824;7.134;2022-09-20T18:29:09;302.07;;;270.07;;
20067;SDS011;10194;50.824;7.134;2022-09-20T18:31:42;307.83;;;275.83;;
20067;SDS011;10194;50.824;7.134;2022-09-20T18:34:18;312.07;;;279.03;;
20067;SDS011;10194;50.824;7.134;2022-09-20T18:36:56;315.90;;;283.03;;
20067;SDS011;10194;50.824;7.134;2022-09-20T18:39:26;314.53;;;282.10;;
20067;SDS011;10194;50.824;7.134;2022-09-20T18:41:58;311.77;;;279.50;;
20067;SDS011;10194;50.824;7.134;2022-09-20T18:44:25;316.03;;;283.77;;
20067;SDS011;10194;50.824;7.134;2022-09-20T18:46:52;317.67;;;284.63;;
20067;SDS011;10194;50.824;7.134;2022-09-20T18:49:18;320.67;;;287.80;;
20067;SDS011;10194;50.824;7.134;2022-09-20T18:51:45;320.30;;;287.10;;
20067;SDS011;10194;50.824;7.134;2022-09-20T18:54:12;327.40;;;294.50;;
20067;SDS011;10194;50.824;7.134;2022-09-20T18:56:40;330.20;;;297.00;;
20067;SDS011;10194;50.824;7.134;2022-09-20T19:05:06;352.27;;;318.17;;
20067;SDS011;10194;50.824;7.134;2022-09-20T19:08:04;355.70;;;321.23;;
20067;SDS011;10194;50.824;7.134;2022-09-20T19:10:58;370.80;;;336.13;;
20067;SDS011;10194;50.824;7.134;2022-09-20T19:16:19;371.30;;;336.70;;
20067;SDS011;10194;50.824;7.134;2022-09-20T19:27:25;376.13;;;341.53;;
20067;SDS011;10194;50.824;7.134;2022-09-20T19:29:52;378.33;;;343.50;;
20067;SDS011;10194;50.824;7.134;2022-09-20T19:32:18;372.23;;;337.63;;
20067;SDS011;10194;50.824;7.134;2022-09-20T19:34:51;374.27;;;339.17;;
20067;SDS011;10194;50.824;7.134;2022-09-20T19:40:33;379.83;;;345.03;;
20067;SDS011;10194;50.824;7.134;2022-09-20T19:43:36;379.13;;;344.83;;
20067;SDS011;10194;50.824;7.134;2022-09-20T19:49:19;383.97;;;348.87;;
20067;SDS011;10194;50.824;7.134;2022-09-20T19:52:11;382.60;;;347.87;;
20067;SDS011;10194;50.824;7.134;2022-09-20T19:54:38;388.30;;;353.03;;
20067;SDS011;10194;50.824;7.134;2022-09-20T19:57:06;382.83;;;348.17;;
20067;SDS011;10194;50.824;7.134;2022-09-20T19:59:34;381.13;;;346.13;;
20067;SDS011;10194;50.824;7.134;2022-09-20T20:02:00;379.17;;;344.47;;
20067;SDS011;10194;50.824;7.134;2022-09-20T20:04:26;380.20;;;345.60;;
20067;SDS011;10194;50.824;7.134;2022-09-20T20:06:58;379.23;;;344.50;;
20067;SDS011;10194;50.824;7.134;2022-09-20T20:09:39;383.13;;;347.97;;
20067;SDS011;10194;50.824;7.134;2022-09-20T20:20:21;385.90;;;350.97;;